createdAt,value
2022-09-22T00:01:25.940Z,5.81
2022-09-22T00:03:56.487Z,5.92
2022-09-22T00:06:36.942Z,5.84
2022-09-22T00:09:07.774Z,5.79
2022-09-22T00:11:40.179Z,5.58
2022-09-22T00:14:15.590Z,5.46
2022-09-22T00:16:52.487Z,5.34
2022-09-22T00:19:26.667Z,5.37
2022-09-22T00:21:53.821Z,5.48
2022-09-22T00:24:22.899Z,5.53
2022-09-22T00:26:51.226Z,5.50
2022-09-22T00:29:18.040Z,5.49
2022-09-22T00:31:45.754Z,5.35
2022-09-22T00:34:19.898Z,5.36
2022-09-22T00:36:46.637Z,5.39
2022-09-22T00:39:15.358Z,5.45
2022-09-22T00:41:48.717Z,5.56
2022-09-22T00:44:21.197Z,5.65
2022-09-22T00:46:58.775Z,5.63
2022-09-22T00:49:52.116Z,5.43
2022-09-22T00:52:32.034Z,5.06
2022-09-22T00:55:05.204Z,4.76
2022-09-22T00:57:37.027Z,4.69
2022-09-22T01:00:08.288Z,4.43
2022-09-22T01:02:35.246Z,4.50
2022-09-22T01:05:01.731Z,4.63
2022-09-22T01:07:30.999Z,4.71
2022-09-22T01:09:59.749Z,4.75
2022-09-22T01:12:30.820Z,4.73
2022-09-22T01:15:40.771Z,4.65
2022-09-22T01:18:24.824Z,4.65
2022-09-22T01:21:24.655Z,4.46
2022-09-22T01:24:32.155Z,4.44
2022-09-22T01:27:46.722Z,4.34
2022-09-22T01:30:19.689Z,4.41
2022-09-22T01:32:59.097Z,4.41
2022-09-22T01:35:52.697Z,4.52
2022-09-22T01:38:54.131Z,4.52
2022-09-22T01:41:39.656Z,4.46
2022-09-22T01:44:49.092Z,4.43
2022-09-22T01:47:35.695Z,4.40
2022-09-22T01:50:13.880Z,4.30
2022-09-22T01:52:45.145Z,4.38
2022-09-22T01:55:22.865Z,4.60
2022-09-22T01:58:00.961Z,4.79
2022-09-22T02:00:27.764Z,4.97
2022-09-22T02:03:05.096Z,4.95
2022-09-22T02:06:23.291Z,4.97
2022-09-22T02:09:12.033Z,4.89
2022-09-22T02:11:38.803Z,4.95
2022-09-22T02:14:06.975Z,5.00
2022-09-22T02:16:34.846Z,5.01
2022-09-22T02:19:21.546Z,5.07
2022-09-22T02:21:48.942Z,5.20
2022-09-22T02:24:37.868Z,5.03
2022-09-22T02:27:36.416Z,4.65
2022-09-22T02:30:11.914Z,4.42
2022-09-22T02:32:48.573Z,4.30
2022-09-22T02:35:15.958Z,3.99
2022-09-22T02:37:55.290Z,3.94
2022-09-22T02:40:44.494Z,4.25
2022-09-22T02:43:27.344Z,4.30
2022-09-22T02:46:06.445Z,4.30
2022-09-22T02:48:41.390Z,4.27
2022-09-22T02:51:09.496Z,4.18
2022-09-22T02:53:36.534Z,4.12
2022-09-22T02:56:04.529Z,4.19
2022-09-22T02:58:31.236Z,4.18
2022-09-22T03:00:58.058Z,4.23
2022-09-22T03:03:33.343Z,4.31
2022-09-22T03:05:59.806Z,4.41
2022-09-22T03:08:26.267Z,4.61
2022-09-22T03:10:52.692Z,4.58
2022-09-22T03:13:19.208Z,4.36
2022-09-22T03:15:46.928Z,4.23
2022-09-22T03:18:13.971Z,4.19
2022-09-22T03:20:40.920Z,4.18
2022-09-22T03:23:07.588Z,4.25
2022-09-22T03:25:34.155Z,4.23
2022-09-22T03:28:00.993Z,4.28
2022-09-22T03:30:27.550Z,4.31
2022-09-22T03:32:54.062Z,4.26
2022-09-22T03:35:20.561Z,4.22
2022-09-22T03:37:47.075Z,4.20
2022-09-22T03:40:13.966Z,4.20
2022-09-22T03:42:40.477Z,4.23
2022-09-22T03:45:07.627Z,4.25
2022-09-22T03:47:34.060Z,4.22
2022-09-22T03:50:02.783Z,4.29
2022-09-22T03:52:29.226Z,4.38
2022-09-22T03:54:55.681Z,4.33
2022-09-22T03:57:22.378Z,4.19
2022-09-22T03:59:48.977Z,4.20
2022-09-22T04:02:15.515Z,4.25
2022-09-22T04:04:42.391Z,4.30
2022-09-22T04:07:08.850Z,4.31
2022-09-22T04:09:35.615Z,4.29
2022-09-22T04:12:02.740Z,4.27
2022-09-22T04:14:29.375Z,4.34
2022-09-22T04:16:56.598Z,4.32
2022-09-22T04:19:26.127Z,4.29
2022-09-22T04:21:56.977Z,4.25
2022-09-22T04:24:24.407Z,4.06
2022-09-22T04:27:15.263Z,3.95
2022-09-22T04:29:37.673Z,3.57
2022-09-22T04:32:04.331Z,3.65
2022-09-22T04:34:30.790Z,3.67
2022-09-22T04:36:57.224Z,3.60
2022-09-22T04:39:24.123Z,3.60
2022-09-22T04:41:50.917Z,3.66
2022-09-22T04:44:17.361Z,3.62
2022-09-22T04:46:45.989Z,3.61
2022-09-22T04:49:15.519Z,3.63
2022-09-22T04:51:42.087Z,3.66
2022-09-22T04:54:08.513Z,3.65
2022-09-22T04:56:34.976Z,3.60
2022-09-22T04:59:02.122Z,3.65
2022-09-22T05:01:28.692Z,3.72
2022-09-22T05:03:55.168Z,3.73
2022-09-22T05:06:21.626Z,3.69
2022-09-22T05:08:48.050Z,3.66
2022-09-22T05:11:14.482Z,3.63
2022-09-22T05:13:41.087Z,3.67
2022-09-22T05:16:08.771Z,3.67
2022-09-22T05:18:35.696Z,3.63
2022-09-22T05:21:02.554Z,3.48
2022-09-22T05:23:29.198Z,3.49
2022-09-22T05:25:59.362Z,3.61
2022-09-22T05:28:25.818Z,3.70
2022-09-22T05:30:52.892Z,3.68
2022-09-22T05:33:19.316Z,3.53
2022-09-22T05:35:45.997Z,3.51
2022-09-22T05:38:12.505Z,3.50
2022-09-22T05:40:39.069Z,3.55
2022-09-22T05:43:05.596Z,3.61
2022-09-22T05:45:32.109Z,3.63
2022-09-22T05:47:58.583Z,3.64
2022-09-22T05:50:25.087Z,3.71
2022-09-22T05:52:51.767Z,3.86
2022-09-22T05:55:18.561Z,4.05
2022-09-22T05:57:45.069Z,4.23
2022-09-22T06:00:12.429Z,4.32
2022-09-22T06:02:39.566Z,4.27
2022-09-22T06:05:06.777Z,4.26
2022-09-22T06:07:33.545Z,4.25
2022-09-22T06:10:00.021Z,4.27
2022-09-22T06:12:29.466Z,4.30
2022-09-22T06:14:56.588Z,4.20
2022-09-22T06:17:26.180Z,4.13
2022-09-22T06:19:52.660Z,4.07
2022-09-22T06:22:19.128Z,4.02
2022-09-22T06:24:45.638Z,4.14
2022-09-22T06:27:12.320Z,4.25
2022-09-22T06:29:38.827Z,4.33
2022-09-22T06:32:08.478Z,4.22
2022-09-22T06:34:36.888Z,4.11
2022-09-22T06:37:07.817Z,4.00
2022-09-22T06:39:37.358Z,4.07
2022-09-22T06:42:05.325Z,4.21
2022-09-22T06:44:32.185Z,4.21
2022-09-22T06:46:58.971Z,4.22
2022-09-22T06:49:26.163Z,4.14
2022-09-22T06:51:52.692Z,4.06
2022-09-22T06:54:21.397Z,4.00
2022-09-22T06:56:49.463Z,4.00
2022-09-22T06:59:16.688Z,4.07
2022-09-22T07:01:45.292Z,4.09
2022-09-22T07:04:13.385Z,4.12
2022-09-22T07:06:40.515Z,4.15
2022-09-22T07:09:09.208Z,4.24
2022-09-22T07:11:39.777Z,4.30
2022-09-22T07:14:07.488Z,4.34
2022-09-22T07:16:35.175Z,4.44
2022-09-22T07:19:01.660Z,4.54
2022-09-22T07:21:34.884Z,4.61
2022-09-22T07:24:01.890Z,4.71
2022-09-22T07:26:32.794Z,4.82
2022-09-22T07:29:03.311Z,5.01
2022-09-22T07:31:32.006Z,5.16
2022-09-22T07:34:01.558Z,5.31
2022-09-22T07:36:31.565Z,5.47
2022-09-22T07:39:07.705Z,5.62
2022-09-22T07:41:44.392Z,5.62
2022-09-22T07:44:31.231Z,5.31
2022-09-22T07:46:58.408Z,5.72
2022-09-22T07:49:24.926Z,6.01
2022-09-22T07:51:54.770Z,6.20
2022-09-22T07:54:22.624Z,6.35
2022-09-22T07:56:58.017Z,6.43
2022-09-22T07:59:25.629Z,6.47
2022-09-22T08:01:52.787Z,6.60
2022-09-22T08:04:22.764Z,6.61
2022-09-22T08:06:55.133Z,6.70
2022-09-22T08:09:22.823Z,6.80
2022-09-22T08:11:50.025Z,6.88
2022-09-22T08:14:18.126Z,6.99
2022-09-22T08:16:45.910Z,7.12
2022-09-22T08:19:13.479Z,7.16
2022-09-22T08:21:48.938Z,7.27
2022-09-22T08:24:22.327Z,7.42
2022-09-22T08:26:52.370Z,7.52
2022-09-22T08:29:19.317Z,7.63
2022-09-22T08:31:47.296Z,7.77
2022-09-22T08:34:16.532Z,7.88
2022-09-22T08:36:48.281Z,7.99
2022-09-22T08:39:17.704Z,8.12
2022-09-22T08:42:10.140Z,8.14
2022-09-22T08:45:01.750Z,8.21
2022-09-22T08:47:59.956Z,8.24
2022-09-22T08:50:55.661Z,8.40
2022-09-22T08:53:23.263Z,8.56
2022-09-22T08:56:06.918Z,8.69
2022-09-22T08:58:56.394Z,8.82
2022-09-22T09:01:57.258Z,8.97
2022-09-22T09:04:51.263Z,9.07
2022-09-22T09:08:04.139Z,9.17
2022-09-22T09:11:14.612Z,9.29
2022-09-22T09:14:08.920Z,9.44
2022-09-22T09:17:03.614Z,9.49
2022-09-22T09:19:45.966Z,9.63
2022-09-22T09:22:27.041Z,9.82
2022-09-22T09:25:25.014Z,9.95
2022-09-22T09:27:59.890Z,10.14
2022-09-22T09:30:26.785Z,10.22
2022-09-22T09:33:14.254Z,10.23
2022-09-22T09:35:51.918Z,10.33
2022-09-22T09:38:38.315Z,10.48
2022-09-22T09:41:22.210Z,10.41
2022-09-22T09:43:53.233Z,10.57
2022-09-22T09:47:19.365Z,10.59
2022-09-22T09:49:52.788Z,10.75
2022-09-22T09:52:21.069Z,10.88
2022-09-22T09:54:48.524Z,10.95
2022-09-22T09:57:20.710Z,10.97
2022-09-22T10:00:27.575Z,11.03
2022-09-22T10:03:29.927Z,11.07
2022-09-22T10:06:06.313Z,11.26
2022-09-22T10:08:45.481Z,11.45
2022-09-22T10:11:15.045Z,11.69
2022-09-22T10:13:43.825Z,11.95
2022-09-22T10:16:51.660Z,12.05
2022-09-22T10:19:30.701Z,12.18
2022-09-22T10:22:27.430Z,12.29
2022-09-22T10:25:03.129Z,12.47
2022-09-22T10:27:31.786Z,12.67
2022-09-22T10:30:21.295Z,12.75
2022-09-22T10:33:20.299Z,12.77
2022-09-22T10:36:12.419Z,12.78
2022-09-22T10:38:43.083Z,12.91
2022-09-22T10:41:17.761Z,12.90
2022-09-22T10:43:52.187Z,12.95
2022-09-22T10:46:55.477Z,13.01
2022-09-22T10:49:40.086Z,13.09
2022-09-22T10:52:30.675Z,13.22
2022-09-22T10:55:30.599Z,13.33
2022-09-22T10:58:08.780Z,13.45
2022-09-22T11:00:39.482Z,13.60
2022-09-22T11:03:48.676Z,13.73
2022-09-22T11:07:12.850Z,13.91
2022-09-22T11:10:20.455Z,13.98
2022-09-22T11:14:03.226Z,14.19
2022-09-22T11:16:48.358Z,14.52
2022-09-22T11:19:35.782Z,14.64
2022-09-22T11:22:30.378Z,14.67
2022-09-22T11:25:50.793Z,14.63
2022-09-22T11:28:57.455Z,14.64
2022-09-22T11:31:45.534Z,14.73
2022-09-22T11:34:39.512Z,14.72
2022-09-22T11:38:02.417Z,14.46
2022-09-22T11:41:16.061Z,14.53
2022-09-22T11:44:11.940Z,14.52
2022-09-22T11:47:31.310Z,14.55
2022-09-22T11:50:16.551Z,14.79
2022-09-22T11:53:24.327Z,14.86
2022-09-22T11:56:34.574Z,14.97
2022-09-22T11:59:28.422Z,15.13
2022-09-22T12:02:04.549Z,15.10
2022-09-22T12:04:46.515Z,15.15
2022-09-22T12:07:44.747Z,15.28
2022-09-22T12:10:30.115Z,15.33
2022-09-22T12:12:57.047Z,15.42
2022-09-22T12:15:38.215Z,15.27
2022-09-22T12:18:20.074Z,15.24
2022-09-22T12:21:01.917Z,15.07
2022-09-22T12:23:47.583Z,15.04
2022-09-22T12:26:31.501Z,15.09
2022-09-22T12:29:01.891Z,15.22
2022-09-22T12:31:38.002Z,15.19
2022-09-22T12:34:18.314Z,15.29
2022-09-22T12:36:46.345Z,15.40
2022-09-22T12:39:23.829Z,15.32
2022-09-22T12:41:59.198Z,15.32
2022-09-22T12:44:31.897Z,15.30
2022-09-22T12:47:23.365Z,15.13
2022-09-22T12:50:04.249Z,15.06
2022-09-22T12:53:02.302Z,14.99
2022-09-22T12:55:28.674Z,15.11
2022-09-22T12:58:01.048Z,15.20
2022-09-22T13:00:41.065Z,15.22
2022-09-22T13:03:25.965Z,15.17
2022-09-22T13:06:22.596Z,15.21
2022-09-22T13:08:54.788Z,15.10
2022-09-22T13:12:11.932Z,15.03
2022-09-22T13:15:14.970Z,15.13
2022-09-22T13:17:45.688Z,15.36
2022-09-22T13:20:45.951Z,15.49
2022-09-22T13:23:13.946Z,15.63
2022-09-22T13:25:44.181Z,15.70
2022-09-22T13:28:16.843Z,15.63
2022-09-22T13:30:46.461Z,15.63
2022-09-22T13:33:24.462Z,15.61
2022-09-22T13:35:57.783Z,15.59
2022-09-22T13:38:24.787Z,15.59
2022-09-22T13:40:52.618Z,15.63
2022-09-22T13:43:33.542Z,15.53
2022-09-22T13:46:03.551Z,15.60
2022-09-22T13:48:37.503Z,15.69
2022-09-22T13:51:11.601Z,15.67
2022-09-22T13:53:49.250Z,15.69
2022-09-22T13:56:22.010Z,15.75
2022-09-22T13:58:51.619Z,15.77
2022-09-22T14:01:27.455Z,15.74
2022-09-22T14:03:55.555Z,15.69
2022-09-22T14:06:28.716Z,15.68
2022-09-22T14:08:56.990Z,15.75
2022-09-22T14:11:28.057Z,15.80
2022-09-22T14:13:54.811Z,15.81
2022-09-22T14:16:50.902Z,15.78
2022-09-22T14:19:33.900Z,15.85
2022-09-22T14:22:13.580Z,15.87
2022-09-22T14:24:48.573Z,15.98
2022-09-22T14:27:27.697Z,16.02
2022-09-22T14:29:56.079Z,16.13
2022-09-22T14:32:39.618Z,16.00
2022-09-22T14:35:16.566Z,15.97
2022-09-22T14:37:49.362Z,15.92
2022-09-22T14:40:22.402Z,15.94
2022-09-22T14:43:08.731Z,15.93
2022-09-22T14:45:57.773Z,15.92
2022-09-22T14:48:38.855Z,16.00
2022-09-22T14:51:25.351Z,16.05
2022-09-22T14:53:58.595Z,16.08
2022-09-22T14:56:29.335Z,16.09
2022-09-22T14:59:02.548Z,16.07
2022-09-22T15:01:50.918Z,15.96
2022-09-22T15:04:41.675Z,15.92
2022-09-22T15:07:25.776Z,15.96
2022-09-22T15:10:00.379Z,16.01
2022-09-22T15:12:47.347Z,15.98
2022-09-22T15:15:29.000Z,15.91
2022-09-22T15:18:19.029Z,16.03
2022-09-22T15:20:47.097Z,16.05
2022-09-22T15:23:18.162Z,16.06
2022-09-22T15:25:46.403Z,16.01
2022-09-22T15:28:18.559Z,15.88
2022-09-22T15:30:47.744Z,15.95
2022-09-22T15:33:15.962Z,16.00
2022-09-22T15:35:46.338Z,15.93
2022-09-22T15:38:27.371Z,15.85
2022-09-22T15:40:54.352Z,15.85
2022-09-22T15:43:23.296Z,15.84
2022-09-22T15:45:56.591Z,15.82
2022-09-22T15:48:30.341Z,15.79
2022-09-22T15:51:00.685Z,15.78
2022-09-22T15:53:27.323Z,15.70
2022-09-22T15:55:54.574Z,15.65
2022-09-22T15:58:23.155Z,15.63
2022-09-22T16:00:55.364Z,15.53
2022-09-22T16:03:23.957Z,15.45
2022-09-22T16:06:02.051Z,15.25
2022-09-22T16:08:35.587Z,15.18
2022-09-22T16:11:05.448Z,15.08
2022-09-22T16:13:33.282Z,14.93
2022-09-22T16:16:03.251Z,14.78
2022-09-22T16:18:36.157Z,14.73
2022-09-22T16:21:14.407Z,14.68
2022-09-22T16:23:40.835Z,14.60
2022-09-22T16:26:07.279Z,14.56
2022-09-22T16:28:33.723Z,14.48
2022-09-22T16:31:04.307Z,14.44
2022-09-22T16:33:31.545Z,14.47
2022-09-22T16:35:58.388Z,14.46
2022-09-22T16:38:24.950Z,14.36
2022-09-22T16:41:07.823Z,14.23
2022-09-22T16:43:34.301Z,14.16
2022-09-22T16:46:19.661Z,14.12
2022-09-22T16:48:46.296Z,13.96
2022-09-22T16:51:15.571Z,13.85
2022-09-22T16:53:42.488Z,13.85
2022-09-22T16:56:08.922Z,13.74
2022-09-22T16:58:35.367Z,13.66
2022-09-22T17:01:04.563Z,13.51
2022-09-22T17:03:34.047Z,13.40
2022-09-22T17:06:06.519Z,13.24
2022-09-22T17:08:34.057Z,13.16
2022-09-22T17:11:00.730Z,13.14
2022-09-22T17:13:31.214Z,12.97
2022-09-22T17:16:20.828Z,12.76
2022-09-22T17:18:50.146Z,12.53
2022-09-22T17:21:21.076Z,12.36
2022-09-22T17:23:50.338Z,12.29
2022-09-22T17:26:18.923Z,12.30
2022-09-22T17:28:46.499Z,12.24
2022-09-22T17:31:13.702Z,12.07
2022-09-22T17:33:47.804Z,12.03
2022-09-22T17:36:20.305Z,12.03
2022-09-22T17:38:50.669Z,12.10
2022-09-22T17:41:26.158Z,11.91
2022-09-22T17:43:58.428Z,11.77
2022-09-22T17:46:28.796Z,11.65
2022-09-22T17:49:14.214Z,11.54
2022-09-22T17:52:10.154Z,11.29
2022-09-22T17:55:00.131Z,11.07
2022-09-22T17:57:32.101Z,10.96
2022-09-22T17:59:59.270Z,10.91
2022-09-22T18:02:32.133Z,10.75
2022-09-22T18:04:58.864Z,10.57
2022-09-22T18:07:27.001Z,10.46
2022-09-22T18:09:55.845Z,10.55
2022-09-22T18:12:25.010Z,10.38
2022-09-22T18:14:55.335Z,10.21
2022-09-22T18:17:26.516Z,10.04
2022-09-22T18:19:58.700Z,9.96
2022-09-22T18:22:28.469Z,9.91
2022-09-22T18:24:56.095Z,9.83
2022-09-22T18:27:29.739Z,9.70
2022-09-22T18:29:59.455Z,9.66
2022-09-22T18:32:27.747Z,9.60
2022-09-22T18:34:55.375Z,9.58
2022-09-22T18:37:25.017Z,9.53
2022-09-22T18:39:51.618Z,9.37
2022-09-22T18:42:22.608Z,9.29
2022-09-22T18:44:49.053Z,9.22
2022-09-22T18:47:18.902Z,9.24
2022-09-22T18:49:48.781Z,9.22
2022-09-22T18:52:22.834Z,9.19
2022-09-22T18:54:51.670Z,9.10
2022-09-22T18:57:18.192Z,8.99
2022-09-22T18:59:44.647Z,9.04
2022-09-22T19:02:12.274Z,8.98
2022-09-22T19:04:39.159Z,8.95
2022-09-22T19:07:24.367Z,8.91
2022-09-22T19:09:52.371Z,8.82
2022-09-22T19:12:20.280Z,8.71
2022-09-22T19:14:48.023Z,8.78
2022-09-22T19:17:17.123Z,8.85
2022-09-22T19:19:48.758Z,8.77
2022-09-22T19:22:16.742Z,8.62
2022-09-22T19:24:45.951Z,8.51
2022-09-22T19:27:16.302Z,8.45
2022-09-22T19:29:42.787Z,8.38
2022-09-22T19:32:10.109Z,8.34
2022-09-22T19:34:36.577Z,8.29
2022-09-22T19:37:03.663Z,8.33
2022-09-22T19:39:32.014Z,8.24
2022-09-22T19:41:59.424Z,8.27
2022-09-22T19:44:27.038Z,8.25
2022-09-22T19:46:53.487Z,8.18
2022-09-22T19:49:19.986Z,8.16
2022-09-22T19:51:46.476Z,8.10
2022-09-22T19:54:13.007Z,8.00
2022-09-22T19:56:39.801Z,7.95
2022-09-22T19:59:09.601Z,7.93
2022-09-22T20:01:41.035Z,7.94
2022-09-22T20:04:19.062Z,7.93
2022-09-22T20:06:48.923Z,7.86
2022-09-22T20:09:16.826Z,7.83
2022-09-22T20:11:49.764Z,7.74
2022-09-22T20:14:22.476Z,7.74
2022-09-22T20:17:09.382Z,7.54
2022-09-22T20:19:38.366Z,7.63
2022-09-22T20:22:27.499Z,7.57
2022-09-22T20:25:01.283Z,7.63
2022-09-22T20:27:31.511Z,7.66
2022-09-22T20:29:59.824Z,7.61
2022-09-22T20:32:31.404Z,7.57
2022-09-22T20:34:57.879Z,7.44
2022-09-22T20:37:24.894Z,7.47
2022-09-22T20:39:51.947Z,7.47
2022-09-22T20:42:18.424Z,7.45
2022-09-22T20:44:45.140Z,7.49
2022-09-22T20:47:24.314Z,7.47
2022-09-22T20:49:52.099Z,7.40
2022-09-22T20:52:20.511Z,7.35
2022-09-22T20:54:48.714Z,7.24
2022-09-22T20:57:16.012Z,7.24
2022-09-22T20:59:46.233Z,7.32
2022-09-22T21:02:14.773Z,7.22
2022-09-22T21:04:41.697Z,7.15
2022-09-22T21:07:11.108Z,7.13
2022-09-22T21:09:56.196Z,7.03
2022-09-22T21:12:27.343Z,6.99
2022-09-22T21:14:57.390Z,7.03
2022-09-22T21:17:24.204Z,7.01
2022-09-22T21:19:50.782Z,6.98
2022-09-22T21:22:17.256Z,6.96
2022-09-22T21:24:52.510Z,6.95
2022-09-22T21:27:20.361Z,6.88
2022-09-22T21:29:46.924Z,6.90
2022-09-22T21:32:13.435Z,6.87
2022-09-22T21:34:41.755Z,6.80
2022-09-22T21:37:11.250Z,6.82
2022-09-22T21:39:37.750Z,6.77
2022-09-22T21:42:04.291Z,6.77
2022-09-22T21:44:30.763Z,6.70
2022-09-22T21:46:57.238Z,6.65
2022-09-22T21:49:24.191Z,6.62
2022-09-22T21:51:50.711Z,6.62
2022-09-22T21:54:18.870Z,6.60
2022-09-22T21:56:46.233Z,6.62
2022-09-22T21:59:13.367Z,6.60
2022-09-22T22:01:42.229Z,6.62
2022-09-22T22:04:10.110Z,6.63
2022-09-22T22:06:45.571Z,6.53
2022-09-22T22:09:20.307Z,6.54
2022-09-22T22:11:59.201Z,6.53
2022-09-22T22:14:32.697Z,6.60
2022-09-22T22:17:01.999Z,6.55
2022-09-22T22:19:29.774Z,6.51
2022-09-22T22:21:56.274Z,6.51
2022-09-22T22:24:24.675Z,6.42
2022-09-22T22:27:02.316Z,6.28
2022-09-22T22:29:34.633Z,6.24
2022-09-22T22:32:02.570Z,6.24
2022-09-22T22:34:29.123Z,6.25
2022-09-22T22:36:58.115Z,6.28
2022-09-22T22:39:24.700Z,6.21
2022-09-22T22:41:54.385Z,6.20
2022-09-22T22:44:21.720Z,6.18
2022-09-22T22:46:48.388Z,6.19
2022-09-22T22:49:15.086Z,6.12
2022-09-22T22:51:45.852Z,6.10
2022-09-22T22:54:14.259Z,6.01
2022-09-22T22:56:42.809Z,5.93
2022-09-22T22:59:11.023Z,5.91
2022-09-22T23:01:37.728Z,5.96
2022-09-22T23:04:07.774Z,5.99
2022-09-22T23:06:43.642Z,6.02
2022-09-22T23:09:14.746Z,5.92
2022-09-22T23:11:42.378Z,5.80
2022-09-22T23:14:12.009Z,5.79
2022-09-22T23:16:44.821Z,5.77
2022-09-22T23:19:17.755Z,5.75
2022-09-22T23:21:45.407Z,5.81
2022-09-22T23:24:18.900Z,5.72
2022-09-22T23:26:49.736Z,5.74
2022-09-22T23:29:16.199Z,5.61
2022-09-22T23:31:42.680Z,5.51
2022-09-22T23:34:09.129Z,5.38
2022-09-22T23:36:35.640Z,5.42
2022-09-22T23:39:05.273Z,5.42
2022-09-22T23:41:34.847Z,5.39
2022-09-22T23:44:02.732Z,5.38
2022-09-22T23:46:29.297Z,5.45
2022-09-22T23:48:55.906Z,5.43
2022-09-22T23:51:22.911Z,5.40
2022-09-22T23:53:49.407Z,5.44
2022-09-22T23:56:15.843Z,5.43
2022-09-22T23:58:42.292Z,5.45
